Time;durP1;ratioP1;P1;durP2;ratioP2;P2;SDS_P1;SDS_P2;PMS_P1;PMS_P2;Temp;Humidity;BMP_temperature;BMP_pressure;BME280_temperature;BME280_humidity;BME280_pressure;Samples;Min_cycle;Max_cycle;Signal;HPM_P1;HPM_P2
2023/01/10 00:01:33;;;;;;;6.40;2.42;;;7.80;1.00;;;;;;6226899;22;20228;-80
2023/01/10 00:04:02;;;;;;;7.90;3.03;;;7.80;1.00;;;;;;6227824;22;20206;-81
2023/01/10 00:06:29;;;;;;;10.00;3.20;;;7.70;1.00;;;;;;6227793;22;20463;-82
2023/01/10 00:08:57;;;;;;;7.03;3.10;;;7.80;1.00;;;;;;6227266;22;20208;-82
2023/01/10 00:14:10;;;;;;;6.22;2.60;;;7.80;1.00;;;;;;6229243;22;20421;-79
2023/01/10 00:16:41;;;;;;;6.95;3.00;;;7.80;1.00;;;;;;6194474;22;20220;-79
2023/01/10 00:19:09;;;;;;;7.22;2.90;;;7.80;1.00;;;;;;6238859;22;20248;-82
2023/01/10 00:24:30;;;;;;;6.60;2.80;;;7.90;1.00;;;;;;6234650;22;20218;-82
2023/01/10 00:30:00;;;;;;;7.80;3.22;;;7.80;1.00;;;;;;6237867;22;20222;-82
2023/01/10 00:32:30;;;;;;;7.55;3.70;;;7.80;1.00;;;;;;6223895;22;20517;-82
2023/01/10 00:34:58;;;;;;;9.52;3.70;;;7.80;1.00;;;;;;6223913;22;20286;-81
2023/01/10 00:37:25;;;;;;;7.50;3.08;;;7.80;1.00;;;;;;6221806;22;20273;-82
2023/01/10 00:39:54;;;;;;;8.40;2.97;;;7.70;1.00;;;;;;6222776;22;20615;-81
2023/01/10 00:45:06;;;;;;;8.82;3.97;;;7.70;1.00;;;;;;6223373;22;20299;-81
2023/01/10 00:47:35;;;;;;;10.30;3.70;;;7.70;1.00;;;;;;6221987;22;20234;-82
2023/01/10 00:50:03;;;;;;;7.45;3.58;;;7.70;1.00;;;;;;6227786;22;20642;-82
2023/01/10 00:52:31;;;;;;;7.85;3.25;;;7.60;1.00;;;;;;6222523;22;20217;-80
2023/01/10 00:54:59;;;;;;;7.68;3.20;;;7.60;1.00;;;;;;6223942;22;20214;-80
2023/01/10 00:57:28;;;;;;;7.88;3.58;;;7.60;1.00;;;;;;6224051;22;20220;-81
2023/01/10 00:59:57;;;;;;;10.43;4.18;;;7.50;1.00;;;;;;6225868;22;20218;-81
2023/01/10 01:02:26;;;;;;;9.60;3.90;;;7.60;1.00;;;;;;6223360;22;20211;-82
2023/01/10 01:04:58;;;;;;;7.22;2.90;;;7.60;1.00;;;;;;6222954;22;20317;-81
2023/01/10 01:07:27;;;;;;;7.75;3.72;;;7.60;1.00;;;;;;6221357;22;20964;-82
2023/01/10 01:12:49;;;;;;;8.68;3.92;;;7.60;1.00;;;;;;6226609;22;20548;-81
2023/01/10 01:15:16;;;;;;;8.70;3.72;;;7.50;1.00;;;;;;6223260;22;20227;-81
2023/01/10 01:17:44;;;;;;;8.32;3.50;;;7.50;1.00;;;;;;6221793;22;20803;-81
2023/01/10 01:20:12;;;;;;;8.52;3.78;;;7.60;1.00;;;;;;6226412;23;20238;-81
2023/01/10 01:22:38;;;;;;;8.45;3.67;;;7.60;1.00;;;;;;6220511;22;20221;-80
2023/01/10 01:25:06;;;;;;;6.82;3.67;;;7.60;1.00;;;;;;6218396;22;20906;-86
2023/01/10 01:27:34;;;;;;;9.13;3.60;;;7.60;1.00;;;;;;6216217;22;20685;-82
2023/01/10 01:30:02;;;;;;;8.32;3.40;;;7.70;1.00;;;;;;6222263;22;20205;-82
2023/01/10 01:32:29;;;;;;;7.55;3.28;;;7.70;1.00;;;;;;6220739;22;20304;-83
2023/01/10 01:34:56;;;;;;;8.93;3.65;;;7.70;1.00;;;;;;6223180;22;20214;-82
2023/01/10 01:37:23;;;;;;;10.48;3.88;;;7.60;1.00;;;;;;6219656;22;20225;-83
2023/01/10 01:39:52;;;;;;;7.35;4.18;;;7.60;1.00;;;;;;6221714;22;20229;-80
2023/01/10 01:42:25;;;;;;;7.43;3.45;;;7.60;1.00;;;;;;6224365;22;20212;-81
2023/01/10 01:45:36;;;;;;;9.35;3.38;;;7.60;1.00;;;;;;6183440;23;20218;-82
2023/01/10 01:48:09;;;;;;;7.53;3.60;;;7.60;1.00;;;;;;6221192;22;20294;-82
2023/01/10 01:50:42;;;;;;;7.80;3.33;;;7.60;1.00;;;;;;6222618;22;20278;-80
2023/01/10 01:53:14;;;;;;;8.90;3.25;;;7.60;1.00;;;;;;6222263;22;20289;-80
2023/01/10 01:55:45;;;;;;;9.55;3.75;;;7.60;1.00;;;;;;6223511;22;20221;-81
2023/01/10 01:58:15;;;;;;;8.57;3.70;;;7.50;1.00;;;;;;6221900;23;20753;-82
2023/01/10 02:00:51;;;;;;;8.80;3.20;;;7.50;1.00;;;;;;6222016;22;20222;-82
2023/01/10 02:03:18;;;;;;;9.00;4.28;;;7.40;1.00;;;;;;6221699;22;20296;-82
2023/01/10 02:05:46;;;;;;;8.70;3.63;;;7.50;1.00;;;;;;6220879;22;20264;-83
2023/01/10 02:08:15;;;;;;;8.40;4.05;;;7.50;1.00;;;;;;6220421;22;20211;-83
2023/01/10 02:10:54;;;;;;;8.60;3.63;;;7.50;1.00;;;;;;6220350;22;20222;-82
2023/01/10 02:13:24;;;;;;;8.60;3.30;;;7.50;1.00;;;;;;6220584;22;20538;-83
2023/01/10 02:15:52;;;;;;;8.83;3.50;;;7.40;1.00;;;;;;6222894;22;20596;-81
2023/01/10 02:18:20;;;;;;;8.13;3.55;;;7.40;1.00;;;;;;6220057;22;20506;-81
2023/01/10 02:21:06;;;;;;;7.82;3.83;;;7.40;1.00;;;;;;6221502;22;20223;-81
2023/01/10 02:24:08;;;;;;;7.90;3.50;;;7.30;1.00;;;;;;6220869;22;20523;-82
2023/01/10 02:27:03;;;;;;;8.63;4.18;;;7.30;1.00;;;;;;6221620;22;20273;-82
2023/01/10 02:30:04;;;;;;;7.75;3.70;;;7.30;1.00;;;;;;6218966;22;20697;-80
2023/01/10 02:32:43;;;;;;;7.70;3.15;;;7.30;1.00;;;;;;6217488;22;20268;-82
2023/01/10 02:35:27;;;;;;;8.45;3.83;;;7.40;1.00;;;;;;6218415;22;20757;-83
2023/01/10 02:38:00;;;;;;;9.38;4.15;;;7.40;1.00;;;;;;6216770;22;20298;-82
2023/01/10 02:40:38;;;;;;;8.95;4.35;;;7.40;1.00;;;;;;6215318;22;20223;-83
2023/01/10 02:43:10;;;;;;;7.90;3.90;;;7.40;1.00;;;;;;6220108;22;20250;-82
2023/01/10 02:45:41;;;;;;;9.70;4.03;;;7.30;1.00;;;;;;6212810;22;20260;-83
2023/01/10 02:48:15;;;;;;;7.97;4.22;;;7.30;1.00;;;;;;6215621;22;20241;-83
2023/01/10 02:50:53;;;;;;;8.95;3.65;;;7.30;1.00;;;;;;6217812;22;20706;-83
2023/01/10 02:53:25;;;;;;;8.10;3.85;;;7.40;1.00;;;;;;6223210;22;20213;-82
2023/01/10 02:56:12;;;;;;;8.00;3.45;;;7.40;1.00;;;;;;6226397;22;20233;-82
2023/01/10 02:59:04;;;;;;;7.30;3.45;;;7.40;1.00;;;;;;6214456;22;20304;-83
2023/01/10 03:01:37;;;;;;;7.90;3.35;;;7.40;1.00;;;;;;6218428;22;20561;-82
2023/01/10 03:04:15;;;;;;;8.07;3.67;;;7.40;1.00;;;;;;6218868;22;20558;-82
2023/01/10 03:06:47;;;;;;;7.85;3.60;;;7.30;1.00;;;;;;6220540;22;20213;-82
2023/01/10 03:09:19;;;;;;;7.28;3.55;;;7.30;1.00;;;;;;6221245;22;20268;-82
2023/01/10 03:11:48;;;;;;;7.82;4.05;;;7.40;1.00;;;;;;6219204;22;20536;-81
2023/01/10 03:14:19;;;;;;;7.20;3.33;;;7.40;1.00;;;;;;6220674;22;20266;-83
2023/01/10 03:16:53;;;;;;;8.85;3.88;;;7.50;1.00;;;;;;6203249;22;20220;-82
2023/01/10 03:19:29;;;;;;;8.82;4.00;;;7.50;1.00;;;;;;6219852;22;20219;-82
2023/01/10 03:21:59;;;;;;;8.70;3.75;;;7.60;1.00;;;;;;6220290;22;20637;-82
2023/01/10 03:24:31;;;;;;;9.48;4.20;;;7.60;1.00;;;;;;6220747;22;20209;-82
2023/01/10 03:27:06;;;;;;;10.40;4.82;;;7.50;1.00;;;;;;6220192;22;20215;-82
2023/01/10 03:29:39;;;;;;;7.68;4.05;;;7.60;1.00;;;;;;6222138;22;20219;-82
2023/01/10 03:32:10;;;;;;;9.50;4.13;;;7.60;1.00;;;;;;6207947;22;20208;-82
2023/01/10 03:34:40;;;;;;;7.93;3.95;;;7.60;1.00;;;;;;6220419;22;20437;-82
2023/01/10 03:37:14;;;;;;;9.77;3.53;;;7.60;1.00;;;;;;6222789;22;20290;-83
2023/01/10 03:39:50;;;;;;;9.65;4.32;;;7.60;1.00;;;;;;6196256;22;20414;-82
2023/01/10 03:42:23;;;;;;;8.82;3.70;;;7.60;1.00;;;;;;6223935;22;20215;-82
2023/01/10 03:44:57;;;;;;;10.77;5.05;;;7.60;1.00;;;;;;6221738;22;20267;-82
2023/01/10 03:47:29;;;;;;;10.52;5.20;;;7.60;1.00;;;;;;6221657;22;20208;-82
2023/01/10 03:50:01;;;;;;;9.55;4.35;;;7.50;1.00;;;;;;6222420;22;20222;-82
2023/01/10 03:52:30;;;;;;;10.90;5.00;;;7.50;1.00;;;;;;6217626;22;20660;-82
2023/01/10 03:54:57;;;;;;;7.97;4.20;;;7.50;1.00;;;;;;6201730;23;20692;-83
2023/01/10 03:57:25;;;;;;;8.68;4.05;;;7.50;1.00;;;;;;6216882;22;20222;-82
2023/01/10 03:59:56;;;;;;;10.93;4.95;;;7.50;1.00;;;;;;6220034;22;20261;-82
2023/01/10 04:02:25;;;;;;;8.60;4.20;;;7.50;1.00;;;;;;6220637;22;20225;-82
2023/01/10 04:04:52;;;;;;;10.98;4.45;;;7.50;1.00;;;;;;6216997;22;20218;-82
2023/01/10 04:07:21;;;;;;;9.38;4.60;;;7.50;1.00;;;;;;6223263;22;20281;-82
2023/01/10 04:09:48;;;;;;;10.77;4.87;;;7.60;1.00;;;;;;6220155;22;20219;-82
2023/01/10 04:12:15;;;;;;;10.33;5.10;;;7.50;1.00;;;;;;6221053;22;20442;-82
2023/01/10 04:14:44;;;;;;;8.82;5.05;;;7.60;1.00;;;;;;6224018;22;20413;-83
2023/01/10 04:17:11;;;;;;;11.07;5.40;;;7.60;1.00;;;;;;6221557;22;20236;-82
2023/01/10 04:19:40;;;;;;;9.85;5.07;;;7.60;1.00;;;;;;6222460;22;21181;-83
2023/01/10 04:22:10;;;;;;;11.63;4.88;;;7.50;1.00;;;;;;6223768;22;20216;-83
2023/01/10 04:24:39;;;;;;;13.18;5.32;;;7.50;1.00;;;;;;6223319;22;20213;-83
2023/01/10 04:27:06;;;;;;;9.53;5.17;;;7.50;1.00;;;;;;6206602;22;21063;-83
2023/01/10 04:29:33;;;;;;;13.25;6.15;;;7.50;1.00;;;;;;6221785;22;20481;-82
2023/01/10 04:32:01;;;;;;;10.07;5.55;;;7.50;1.00;;;;;;6222625;22;20216;-82
2023/01/10 04:34:28;;;;;;;9.80;5.43;;;7.50;1.00;;;;;;6206903;22;20224;-82
2023/01/10 04:36:55;;;;;;;11.85;5.90;;;7.50;1.00;;;;;;6205063;22;20267;-83
2023/01/10 04:39:22;;;;;;;11.25;5.90;;;7.50;1.00;;;;;;6217493;22;20219;-83
2023/01/10 04:41:51;;;;;;;11.13;5.68;;;7.50;1.00;;;;;;6220743;22;20210;-83
2023/01/10 04:44:18;;;;;;;12.77;6.68;;;7.60;1.00;;;;;;6221232;22;20698;-82
2023/01/10 04:46:45;;;;;;;12.82;6.53;;;7.60;1.00;;;;;;6204713;22;20260;-82
2023/01/10 04:49:12;;;;;;;13.45;6.90;;;7.60;1.00;;;;;;6210515;22;20251;-82
2023/01/10 04:51:39;;;;;;;12.85;6.60;;;7.60;1.00;;;;;;6218329;22;20275;-82
2023/01/10 04:54:06;;;;;;;11.65;6.85;;;7.60;1.00;;;;;;6224670;22;20213;-82
2023/01/10 04:56:33;;;;;;;15.73;6.57;;;7.60;1.00;;;;;;6221441;22;20299;-82
2023/01/10 04:59:01;;;;;;;15.38;7.15;;;7.60;1.00;;;;;;6223066;22;20286;-83
2023/01/10 05:01:28;;;;;;;12.63;7.53;;;7.60;1.00;;;;;;6203313;22;20213;-82
2023/01/10 05:03:56;;;;;;;11.88;7.13;;;7.60;1.00;;;;;;6218197;22;20211;-82
2023/01/10 05:06:26;;;;;;;14.73;7.53;;;7.60;1.00;;;;;;6219487;22;20221;-81
2023/01/10 05:08:55;;;;;;;10.43;6.40;;;7.60;1.00;;;;;;6221344;22;20269;-82
2023/01/10 05:11:22;;;;;;;15.82;6.93;;;7.60;1.00;;;;;;6219708;22;20277;-84
2023/01/10 05:13:49;;;;;;;13.35;6.50;;;7.60;1.00;;;;;;6221800;22;20222;-84
2023/01/10 05:16:19;;;;;;;12.63;6.75;;;7.60;1.00;;;;;;6208804;22;20244;-82
2023/01/10 05:18:46;;;;;;;11.52;6.65;;;7.50;1.00;;;;;;6221055;22;20224;-82
2023/01/10 05:21:14;;;;;;;15.35;6.90;;;7.60;1.00;;;;;;6221855;22;20265;-83
2023/01/10 05:23:41;;;;;;;13.10;6.90;;;7.60;1.00;;;;;;6219112;22;20218;-82
2023/01/10 05:26:12;;;;;;;12.68;7.25;;;7.60;1.00;;;;;;6219862;22;20219;-82
2023/01/10 05:28:40;;;;;;;15.35;7.85;;;7.70;1.00;;;;;;6215880;22;20216;-83
2023/01/10 05:31:09;;;;;;;17.40;7.43;;;7.60;1.00;;;;;;6207954;22;20215;-80
2023/01/10 05:33:39;;;;;;;18.42;9.20;;;7.60;1.00;;;;;;6222068;22;20299;-82
2023/01/10 05:36:07;;;;;;;15.48;7.65;;;7.50;1.00;;;;;;6223850;22;20211;-82
2023/01/10 05:38:34;;;;;;;15.57;6.53;;;7.60;1.00;;;;;;6213237;22;20216;-81
2023/01/10 05:41:01;;;;;;;17.55;9.05;;;7.60;1.00;;;;;;6201308;22;20210;-81
2023/01/10 05:43:31;;;;;;;13.13;6.82;;;7.50;1.00;;;;;;6219844;22;20224;-82
2023/01/10 05:45:58;;;;;;;15.60;7.38;;;7.50;1.00;;;;;;6222337;22;20240;-83
2023/01/10 05:48:24;;;;;;;16.00;8.00;;;7.50;1.00;;;;;;6217940;22;20744;-81
2023/01/10 05:50:53;;;;;;;15.27;8.98;;;7.60;1.00;;;;;;6218861;22;20240;-81
2023/01/10 05:53:20;;;;;;;18.23;7.47;;;7.60;1.00;;;;;;6215134;22;20234;-80
2023/01/10 05:55:54;;;;;;;15.40;8.33;;;7.60;1.00;;;;;;6220909;22;20243;-82
2023/01/10 05:58:22;;;;;;;15.13;7.88;;;7.60;1.00;;;;;;6219657;22;20418;-82
2023/01/10 06:00:50;;;;;;;15.55;8.10;;;7.60;1.00;;;;;;6222348;22;20271;-82
2023/01/10 06:03:19;;;;;;;16.58;8.40;;;7.60;1.00;;;;;;6219000;22;20292;-82
2023/01/10 06:05:48;;;;;;;13.73;7.65;;;7.70;1.00;;;;;;6198601;23;20247;-81
2023/01/10 06:08:17;;;;;;;13.30;7.28;;;7.70;1.00;;;;;;6192012;23;20938;-82
2023/01/10 06:10:44;;;;;;;15.85;8.23;;;7.70;1.00;;;;;;6192683;23;20223;-82
2023/01/10 06:13:14;;;;;;;17.33;7.50;;;7.70;1.00;;;;;;6179442;23;20401;-83
2023/01/10 06:15:41;;;;;;;27.27;12.25;;;7.70;1.00;;;;;;6193679;23;20295;-83
2023/01/10 06:18:10;;;;;;;16.10;8.00;;;7.60;1.00;;;;;;6191139;23;20221;-84
2023/01/10 06:20:41;;;;;;;13.73;8.50;;;7.60;1.00;;;;;;6191040;23;20223;-84
2023/01/10 06:23:09;;;;;;;17.50;9.93;;;7.60;1.00;;;;;;6176933;23;20217;-83
2023/01/10 06:25:39;;;;;;;17.60;8.37;;;7.70;1.00;;;;;;6175541;23;20221;-83
2023/01/10 06:28:06;;;;;;;16.00;8.27;;;7.70;1.00;;;;;;6192032;23;20438;-83
2023/01/10 06:30:35;;;;;;;15.32;7.80;;;7.70;1.00;;;;;;6192640;23;20214;-83
2023/01/10 06:33:02;;;;;;;15.68;8.20;;;7.70;1.00;;;;;;6193572;23;20314;-84
2023/01/10 06:35:33;;;;;;;17.38;8.65;;;7.70;1.00;;;;;;6180239;23;20217;-83
2023/01/10 06:38:05;;;;;;;21.10;8.40;;;7.70;1.00;;;;;;6157449;23;20671;-82
2023/01/10 06:40:35;;;;;;;20.52;7.85;;;7.60;1.00;;;;;;6133167;23;20215;-83
2023/01/10 06:43:03;;;;;;;15.57;8.30;;;7.60;1.00;;;;;;6187536;23;21072;-84
2023/01/10 06:45:33;;;;;;;13.05;7.00;;;7.50;1.00;;;;;;6182529;23;20215;-83
2023/01/10 06:48:02;;;;;;;15.85;6.78;;;7.50;1.00;;;;;;6180589;23;20215;-83
2023/01/10 06:50:35;;;;;;;16.58;7.47;;;7.60;1.00;;;;;;6148205;23;20224;-83
2023/01/10 06:53:16;;;;;;;15.80;7.93;;;7.60;1.00;;;;;;6156430;23;20248;-84
2023/01/10 06:55:45;;;;;;;14.95;8.15;;;7.60;1.00;;;;;;6145136;23;20885;-84
2023/01/10 06:58:17;;;;;;;14.55;7.95;;;7.60;1.00;;;;;;6155766;23;20229;-84
2023/01/10 07:03:36;;;;;;;15.43;7.50;;;7.70;1.00;;;;;;6133132;23;20262;-84
2023/01/10 07:06:08;;;;;;;19.38;8.13;;;7.70;1.00;;;;;;6169783;23;20202;-83
2023/01/10 07:08:37;;;;;;;21.80;11.87;;;7.80;1.00;;;;;;6162566;23;20223;-83
2023/01/10 07:11:13;;;;;;;18.35;8.23;;;7.80;1.00;;;;;;6186881;23;20927;-84
2023/01/10 07:13:53;;;;;;;18.98;8.38;;;7.90;1.00;;;;;;6157976;23;20920;-82
2023/01/10 07:16:25;;;;;;;20.67;8.30;;;7.90;1.00;;;;;;6155402;23;20207;-82
2023/01/10 07:18:54;;;;;;;16.42;7.65;;;7.90;1.00;;;;;;6178333;23;20219;-84
2023/01/10 07:21:27;;;;;;;20.33;11.18;;;7.90;1.00;;;;;;6159377;23;20228;-83
2023/01/10 07:23:54;;;;;;;17.80;8.85;;;7.80;1.00;;;;;;6168160;23;20212;-83
2023/01/10 07:26:23;;;;;;;16.88;7.78;;;7.80;1.00;;;;;;6191094;23;20214;-84
2023/01/10 07:28:51;;;;;;;16.48;8.43;;;7.80;1.00;;;;;;6195685;23;20648;-83
2023/01/10 07:31:19;;;;;;;23.17;8.82;;;7.80;1.00;;;;;;6193748;23;20236;-83
2023/01/10 07:33:48;;;;;;;19.17;9.25;;;7.70;1.00;;;;;;6179967;23;20206;-84
2023/01/10 07:36:15;;;;;;;18.02;8.57;;;7.70;1.00;;;;;;6197812;23;20240;-82
2023/01/10 07:38:42;;;;;;;18.52;10.30;;;7.60;1.00;;;;;;6195383;23;20251;-81
2023/01/10 07:41:09;;;;;;;19.08;9.00;;;7.60;1.00;;;;;;6196587;23;20207;-82
2023/01/10 07:43:37;;;;;;;14.55;7.85;;;7.60;1.00;;;;;;6181656;23;20233;-81
2023/01/10 07:46:08;;;;;;;14.32;8.32;;;7.70;1.00;;;;;;6181672;23;20216;-82
2023/01/10 07:48:37;;;;;;;16.95;9.65;;;7.60;1.00;;;;;;6196767;23;20229;-81
2023/01/10 07:51:04;;;;;;;20.88;10.43;;;7.60;1.00;;;;;;6194605;23;20212;-82
2023/01/10 07:53:32;;;;;;;16.27;8.98;;;7.70;1.00;;;;;;6180021;23;20214;-82
2023/01/10 07:56:03;;;;;;;16.42;9.18;;;7.70;1.00;;;;;;6196266;23;20295;-85
2023/01/10 07:58:36;;;;;;;16.27;8.65;;;7.60;1.00;;;;;;6195468;23;20248;-82
2023/01/10 08:01:13;;;;;;;15.10;8.60;;;7.60;1.00;;;;;;6178836;23;20218;-81
2023/01/10 08:03:45;;;;;;;18.38;9.13;;;7.60;1.00;;;;;;6160472;23;20219;-80
2023/01/10 08:06:12;;;;;;;15.13;8.60;;;7.60;1.00;;;;;;6183130;23;20679;-81
2023/01/10 08:08:53;;;;;;;16.55;8.75;;;7.70;1.00;;;;;;6194980;23;20218;-82
2023/01/10 08:11:35;;;;;;;18.55;9.02;;;7.80;1.00;;;;;;6172533;23;20260;-81
2023/01/10 08:14:04;;;;;;;18.70;10.13;;;7.80;1.00;;;;;;6176029;23;20229;-82
2023/01/10 08:16:35;;;;;;;16.67;9.02;;;7.80;1.00;;;;;;6148408;23;20247;-81
2023/01/10 08:19:15;;;;;;;;;;;;;;;;;;;;;
2023/01/10 08:24:35;;;;;;;15.63;9.52;;;7.90;1.00;;;;;;6142746;23;20273;-82
2023/01/10 08:27:05;;;;;;;18.35;9.25;;;7.90;1.00;;;;;;6156898;23;20274;-82
2023/01/10 08:29:35;;;;;;;18.60;8.45;;;7.90;1.00;;;;;;6179526;23;20220;-83
2023/01/10 08:32:04;;;;;;;19.88;9.20;;;7.90;1.00;;;;;;6187923;23;20217;-83
2023/01/10 08:34:40;;;;;;;20.95;10.95;;;7.90;1.00;;;;;;6193945;23;20355;-82
2023/01/10 08:37:15;;;;;;;22.85;10.25;;;8.00;1.00;;;;;;6180625;23;20215;-80
2023/01/10 08:39:42;;;;;;;18.02;8.88;;;8.00;1.00;;;;;;6174242;23;20225;-80
2023/01/10 08:42:26;;;;;;;17.02;9.20;;;8.00;1.00;;;;;;6196026;23;20214;-81
2023/01/10 08:44:56;;;;;;;16.02;9.45;;;8.00;1.00;;;;;;6176790;22;20273;-81
2023/01/10 08:47:43;;;;;;;15.95;8.40;;;8.10;1.00;;;;;;6157279;23;20220;-82
2023/01/10 08:50:16;;;;;;;15.98;9.45;;;8.20;1.00;;;;;;6150674;23;20203;-80
2023/01/10 08:52:43;;;;;;;15.48;8.27;;;8.20;1.00;;;;;;6166897;23;20222;-83
2023/01/10 08:55:11;;;;;;;18.33;10.52;;;8.10;1.00;;;;;;6202416;23;20240;-81
2023/01/10 08:57:44;;;;;;;15.95;9.70;;;8.10;1.00;;;;;;6167208;23;20215;-81
2023/01/10 09:00:17;;;;;;;15.68;9.55;;;8.10;1.00;;;;;;6170808;23;20205;-81
2023/01/10 09:02:56;;;;;;;;;;;;;;;;;;;;;
2023/01/10 09:05:26;;;;;;;22.00;10.10;;;8.20;1.00;;;;;;6156185;23;41186;-81
2023/01/10 09:08:06;;;;;;;19.15;10.02;;;8.20;1.00;;;;;;6173783;23;20217;-81
2023/01/10 09:10:47;;;;;;;15.43;9.20;;;8.40;1.00;;;;;;6180663;22;20294;-80
2023/01/10 09:13:14;;;;;;;16.17;9.20;;;8.50;1.00;;;;;;6185466;22;20209;-82
2023/01/10 09:15:46;;;;;;;17.50;9.75;;;8.50;1.00;;;;;;6214156;22;20219;-82
2023/01/10 09:18:17;;;;;;;17.98;9.73;;;8.80;1.00;;;;;;6211662;22;20442;-81
2023/01/10 09:20:44;;;;;;;15.47;9.60;;;9.10;1.00;;;;;;6225387;22;20224;-82
2023/01/10 09:23:26;;;;;;;16.30;10.10;;;9.30;1.00;;;;;;6201278;22;20423;-81
2023/01/10 09:25:54;;;;;;;18.50;9.20;;;9.60;1.00;;;;;;6215370;22;20457;-81
2023/01/10 09:28:24;;;;;;;17.23;9.30;;;9.60;1.00;;;;;;6193587;22;20437;-80
2023/01/10 09:31:07;;;;;;;15.10;8.20;;;9.70;1.00;;;;;;6184670;22;20446;-80
2023/01/10 09:33:48;;;;;;;17.57;8.57;;;9.70;1.00;;;;;;6186724;22;20437;-83
2023/01/10 09:36:15;;;;;;;12.90;6.85;;;9.70;1.00;;;;;;6181415;23;20642;-81
2023/01/10 09:41:53;;;;;;;14.47;7.00;;;9.80;1.00;;;;;;6160004;23;20450;-81
2023/01/10 09:44:45;;;;;;;13.07;7.30;;;9.50;1.00;;;;;;6214862;22;20414;-82
2023/01/10 09:47:34;;;;;;;15.88;8.25;;;9.30;1.00;;;;;;6231749;22;21229;-82
2023/01/10 09:50:17;;;;;;;14.50;7.00;;;9.30;1.00;;;;;;6218092;22;20216;-81
2023/01/10 09:52:56;;;;;;;16.17;7.68;;;9.30;1.00;;;;;;6195300;22;20420;-83
2023/01/10 09:55:37;;;;;;;14.60;7.00;;;9.30;1.00;;;;;;6193310;22;20209;-82
2023/01/10 09:58:28;;;;;;;;;;;;;;;;;;;;;
2023/01/10 10:01:07;;;;;;;13.32;7.78;;;9.60;1.00;;;;;;6199413;22;51184;-82
2023/01/10 10:03:53;;;;;;;12.40;6.77;;;9.40;1.00;;;;;;6191085;22;20278;-81
2023/01/10 10:06:26;;;;;;;13.93;6.87;;;9.10;1.00;;;;;;6172434;23;20475;-84
2023/01/10 10:15:22;;;;;;;14.73;6.70;;;9.00;1.00;;;;;;6176827;23;20465;-89
2023/01/10 10:18:17;;;;;;;12.67;6.90;;;9.00;1.00;;;;;;6182610;23;21264;-91
2023/01/10 10:20:55;;;;;;;11.80;6.80;;;9.30;1.00;;;;;;6153518;23;20498;-88
2023/01/10 10:23:49;;;;;;;14.27;7.30;;;9.20;1.00;;;;;;6207685;23;20424;-87
2023/01/10 10:26:35;;;;;;;12.90;7.03;;;9.20;1.00;;;;;;6177551;23;21056;-89
2023/01/10 10:29:34;;;;;;;13.03;7.63;;;9.20;1.00;;;;;;6181980;23;20441;-87
2023/01/10 10:32:34;;;;;;;14.67;7.70;;;9.30;1.00;;;;;;6206936;23;20939;-88
2023/01/10 10:35:16;;;;;;;13.50;7.53;;;9.40;1.00;;;;;;6169990;23;21262;-84
2023/01/10 10:37:50;;;;;;;12.37;6.70;;;9.40;1.00;;;;;;6177262;23;20455;-84
2023/01/10 10:40:27;;;;;;;16.00;6.77;;;9.30;1.00;;;;;;6194064;23;20478;-88
2023/01/10 10:43:27;;;;;;;17.70;7.63;;;9.30;1.00;;;;;;6173091;23;20398;-89
2023/01/10 10:45:57;;;;;;;18.43;8.10;;;9.20;1.00;;;;;;6201578;23;20484;-87
2023/01/10 10:51:55;;;;;;;18.10;8.43;;;9.30;1.00;;;;;;6140964;23;20547;-88
2023/01/10 10:54:36;;;;;;;19.17;7.47;;;9.20;1.00;;;;;;6132968;23;20379;-90
2023/01/10 10:57:26;;;;;;;16.13;7.73;;;9.10;1.00;;;;;;6159204;23;20511;-88
2023/01/10 11:00:03;;;;;;;16.80;7.60;;;9.30;1.00;;;;;;6080760;23;20441;-86
2023/01/10 11:02:40;;;;;;;17.53;6.90;;;9.30;1.00;;;;;;6181389;23;20464;-89
2023/01/10 11:05:18;;;;;;;15.53;6.60;;;9.30;1.00;;;;;;6209662;22;21291;-88
2023/01/10 11:08:01;;;;;;;19.60;6.43;;;9.30;1.00;;;;;;6207549;22;21185;-88
2023/01/10 11:10:41;;;;;;;13.80;5.57;;;9.20;1.00;;;;;;6199754;22;20506;-89
2023/01/10 11:13:17;;;;;;;14.10;5.43;;;9.00;1.00;;;;;;6239201;22;20434;-87
2023/01/10 11:15:48;;;;;;;15.10;6.33;;;8.90;1.00;;;;;;6229540;22;21403;-88
2023/01/10 11:18:17;;;;;;;16.80;6.93;;;8.90;1.00;;;;;;6231578;22;20935;-89
2023/01/10 11:20:50;;;;;;;13.27;5.43;;;8.90;1.00;;;;;;6211241;22;20391;-83
2023/01/10 11:23:41;;;;;;;18.37;7.60;;;9.00;1.00;;;;;;6230438;22;20436;-87
2023/01/10 11:26:22;;;;;;;12.67;6.00;;;9.00;1.00;;;;;;6216623;22;20416;-89
2023/01/10 11:29:08;;;;;;;15.93;6.73;;;9.10;1.00;;;;;;6228953;22;20416;-89
2023/01/10 11:31:38;;;;;;;14.60;8.13;;;9.30;1.00;;;;;;6178866;22;20399;-88
2023/01/10 11:37:13;;;;;;;12.43;6.27;;;9.80;1.00;;;;;;6206651;22;20432;-90
2023/01/10 11:39:54;;;;;;;13.63;7.07;;;9.80;1.00;;;;;;6196743;22;20479;-88
2023/01/10 11:42:34;;;;;;;16.77;7.07;;;9.90;1.00;;;;;;6216879;22;20428;-87
2023/01/10 11:45:22;;;;;;;15.07;6.63;;;9.90;1.00;;;;;;6208128;22;20552;-83
2023/01/10 11:47:53;;;;;;;17.90;7.40;;;10.10;1.00;;;;;;6227476;22;20445;-89
2023/01/10 11:50:22;;;;;;;11.23;6.00;;;10.30;1.00;;;;;;6225941;22;20401;-85
2023/01/10 11:52:53;;;;;;;12.33;5.23;;;10.40;1.00;;;;;;6225238;22;20417;-84
2023/01/10 11:55:26;;;;;;;13.47;5.90;;;10.60;1.00;;;;;;6224998;22;20427;-84
2023/01/10 11:58:05;;;;;;;12.23;5.73;;;10.70;1.00;;;;;;6225019;22;20448;-87
2023/01/10 12:00:35;;;;;;;14.93;6.10;;;10.60;1.00;;;;;;6224198;22;21441;-83
2023/01/10 12:03:03;;;;;;;12.07;5.67;;;10.50;1.00;;;;;;6224950;22;21023;-86
2023/01/10 12:05:33;;;;;;;11.87;6.40;;;10.50;1.00;;;;;;6217897;22;20441;-86
2023/01/10 12:08:05;;;;;;;14.33;6.33;;;10.50;1.00;;;;;;6206928;22;20861;-86
2023/01/10 12:10:36;;;;;;;13.90;5.90;;;10.50;1.00;;;;;;6197383;22;20401;-87
2023/01/10 12:13:16;;;;;;;18.47;6.67;;;10.60;1.00;;;;;;6200570;22;20429;-83
2023/01/10 12:15:48;;;;;;;13.67;8.67;;;10.80;1.00;;;;;;6198365;22;20483;-86
2023/01/10 12:18:23;;;;;;;11.50;5.70;;;10.80;1.00;;;;;;6203398;22;20452;-86
2023/01/10 12:20:56;;;;;;;29.13;23.37;;;10.80;1.00;;;;;;6239082;22;20413;-85
2023/01/10 12:23:26;;;;;;;14.27;5.27;;;10.70;1.00;;;;;;6232855;22;20456;-83
2023/01/10 12:25:58;;;;;;;15.03;5.97;;;10.70;1.00;;;;;;6211814;22;21281;-83
2023/01/10 12:28:28;;;;;;;12.40;4.93;;;11.30;1.00;;;;;;6225946;22;20424;-87
2023/01/10 12:31:02;;;;;;;11.83;4.80;;;12.10;1.00;;;;;;6229717;22;20399;-87
2023/01/10 12:33:35;;;;;;;16.67;5.10;;;12.00;1.00;;;;;;6211129;22;20412;-86
2023/01/10 12:36:14;;;;;;;12.27;4.27;;;11.90;1.00;;;;;;6228146;22;20461;-87
2023/01/10 12:39:05;;;;;;;12.57;4.27;;;12.50;1.00;;;;;;6224995;22;20513;-87
2023/01/10 12:44:34;;;;;;;14.33;4.87;;;13.40;1.00;;;;;;6226826;22;20423;-87
2023/01/10 12:47:07;;;;;;;14.37;5.37;;;14.00;1.00;;;;;;6223156;22;20494;-87
2023/01/10 12:49:46;;;;;;;11.03;4.80;;;14.30;1.00;;;;;;6213491;22;20915;-87
2023/01/10 12:52:29;;;;;;;12.60;5.17;;;13.60;1.00;;;;;;6203507;22;20464;-86
2023/01/10 12:54:57;;;;;;;12.13;4.80;;;13.00;1.00;;;;;;6223505;22;20463;-84
2023/01/10 12:57:31;;;;;;;13.20;4.97;;;12.70;1.00;;;;;;6204764;22;20433;-87
2023/01/10 13:00:02;;;;;;;8.80;3.60;;;12.40;1.00;;;;;;6236791;22;20472;-86
2023/01/10 13:02:42;;;;;;;12.03;4.57;;;12.20;1.00;;;;;;6223286;23;20435;-88
2023/01/10 13:05:18;;;;;;;11.93;3.70;;;11.90;1.00;;;;;;6228833;22;20393;-88
2023/01/10 13:07:49;;;;;;;15.57;4.73;;;11.70;1.00;;;;;;6229207;22;20396;-85
2023/01/10 13:10:20;;;;;;;8.70;3.50;;;11.40;1.00;;;;;;6226983;23;20480;-87
2023/01/10 13:12:56;;;;;;;14.60;4.17;;;11.20;1.00;;;;;;6227498;22;20493;-85
2023/01/10 13:15:28;;;;;;;14.00;4.00;;;10.90;1.00;;;;;;6234048;22;20483;-87
2023/01/10 13:18:01;;;;;;;10.70;3.47;;;10.60;1.00;;;;;;6227493;22;20443;-86
2023/01/10 13:20:41;;;;;;;10.87;3.47;;;10.40;1.00;;;;;;6231726;22;20400;-85
2023/01/10 13:23:29;;;;;;;10.17;3.80;;;10.20;1.00;;;;;;6225520;22;20388;-87
2023/01/10 13:26:03;;;;;;;9.87;3.70;;;10.10;1.00;;;;;;6240874;22;20437;-87
2023/01/10 13:28:35;;;;;;;9.23;3.43;;;10.10;1.00;;;;;;6212620;22;20430;-82
2023/01/10 13:31:21;;;;;;;10.47;3.40;;;10.00;1.00;;;;;;6215786;22;21221;-88
2023/01/10 13:34:05;;;;;;;10.40;3.20;;;9.90;1.00;;;;;;6184938;22;20396;-87
2023/01/10 13:36:50;;;;;;;11.63;3.43;;;9.80;1.00;;;;;;6191563;22;20388;-86
2023/01/10 13:39:28;;;;;;;11.87;4.67;;;9.90;1.00;;;;;;6184020;23;20432;-86
2023/01/10 14:24:08;;;;;;;13.43;4.90;;;9.30;1.00;;;;;;6223894;22;20407;-87
2023/01/10 14:26:46;;;;;;;11.50;4.77;;;9.20;1.00;;;;;;6191254;22;20604;-88
2023/01/10 14:29:19;;;;;;;10.60;4.00;;;9.10;1.00;;;;;;6241089;22;20419;-85
2023/01/10 14:31:54;;;;;;;14.80;5.77;;;9.00;1.00;;;;;;6210736;22;20504;-86
2023/01/10 14:34:34;;;;;;;16.87;5.43;;;8.90;1.00;;;;;;6186009;22;20395;-86
2023/01/10 14:40:36;;;;;;;11.07;4.70;;;8.70;1.00;;;;;;6225895;22;20412;-87
2023/01/10 14:46:35;;;;;;;13.95;4.97;;;8.50;1.00;;;;;;6225110;22;20477;-84
2023/01/10 14:49:22;;;;;;;15.93;5.03;;;8.50;1.00;;;;;;6216853;22;20259;-86
2023/01/10 14:52:01;;;;;;;9.77;4.78;;;8.30;1.00;;;;;;6236947;22;20412;-88
2023/01/10 16:47:51;;;;;;;13.10;4.40;;;8.20;1.00;;;;;;6290008;22;1639676;-81
2023/01/10 16:53:36;;;;;;;14.13;7.80;;;8.20;1.00;;;;;;6322941;22;20213;-83
2023/01/10 16:56:06;;;;;;;16.60;6.18;;;8.20;1.00;;;;;;6353793;22;20509;-83
2023/01/10 17:01:32;;;;;;;13.25;5.30;;;8.10;1.00;;;;;;6325668;22;20211;-83